Terminal Aerodrome Forecast
Issued by NWS

Current Version | Previous Version | Text Only | Print | Product List | Glossary On
Versions: 1 2 3 4 5 6 7 8 9 10 11 12 13 14 15 16 17 18 19 20 21 22
920
FTUS43 KGRR 072345
TAFMKG
TAF
KMKG 072345Z 0800/0824 20008KT P6SM SCT050
     FM081000 23005KT 2SM BR VCSH BKN007
     FM081600 27006KT 3SM BR VCSH OVC015=

USA.gov is the U.S. government's official web portal to all federal, state and local government web resources and services.